Time;durP1;ratioP1;P1;durP2;ratioP2;P2;SDS_P1;SDS_P2;PMS_P1;PMS_P2;Temp;Humidity;BMP_temperature;BMP_pressure;BME280_temperature;BME280_humidity;BME280_pressure;Samples;Min_cycle;Max_cycle;Signal;HPM_P1;HPM_P2
2021/10/08 00:04:38;;;;;;;5.20;2.93;;;15.90;41.00;;;;;;10457341;28;20228;-74
2021/10/08 00:09:41;;;;;;;3.57;2.80;;;15.90;40.90;;;;;;10445049;28;20233;-74
2021/10/08 00:14:46;;;;;;;3.10;2.80;;;15.90;40.80;;;;;;10449114;28;20312;-74
2021/10/08 00:19:49;;;;;;;3.40;3.10;;;15.90;40.90;;;;;;10446826;28;20232;-74
2021/10/08 00:24:52;;;;;;;3.00;2.50;;;15.90;40.60;;;;;;10453110;28;20704;-74
2021/10/08 00:29:56;;;;;;;3.03;2.73;;;15.80;40.50;;;;;;10445150;28;20237;-74
2021/10/08 00:35:00;;;;;;;2.90;2.70;;;15.80;40.80;;;;;;10452111;28;20263;-74
2021/10/08 00:40:03;;;;;;;3.43;2.90;;;15.80;40.70;;;;;;10451542;28;20220;-74
2021/10/08 00:45:08;;;;;;;3.20;2.90;;;15.80;40.80;;;;;;10456614;28;20725;-74
2021/10/08 00:50:12;;;;;;;3.23;2.93;;;15.70;41.00;;;;;;10457007;28;20221;-74
2021/10/08 00:55:15;;;;;;;4.47;3.00;;;15.70;40.80;;;;;;10449534;28;20528;-74
2021/10/08 01:00:19;;;;;;;3.17;2.97;;;15.70;40.90;;;;;;10447554;28;20236;-74
2021/10/08 01:05:23;;;;;;;3.50;3.03;;;15.70;41.20;;;;;;10445185;28;20239;-74
2021/10/08 01:10:26;;;;;;;2.90;2.70;;;15.70;40.90;;;;;;10450897;28;20223;-74
2021/10/08 01:15:31;;;;;;;3.50;3.20;;;15.70;40.90;;;;;;10445174;28;20221;-74
2021/10/08 01:20:36;;;;;;;5.00;3.30;;;15.70;41.10;;;;;;10456777;28;20228;-74
2021/10/08 01:25:39;;;;;;;3.17;2.87;;;15.70;41.20;;;;;;10453169;28;20256;-74
2021/10/08 01:30:43;;;;;;;3.17;2.97;;;15.70;41.00;;;;;;10451600;28;20748;-74
2021/10/08 01:35:47;;;;;;;3.40;3.10;;;15.70;41.00;;;;;;10451056;28;20225;-74
2021/10/08 01:40:52;;;;;;;3.13;2.87;;;15.70;41.30;;;;;;10446868;28;20239;-74
2021/10/08 01:45:55;;;;;;;3.70;3.40;;;15.70;41.30;;;;;;10448786;28;20586;-74
2021/10/08 01:50:59;;;;;;;4.20;3.20;;;15.70;41.20;;;;;;10452513;28;20247;-74
2021/10/08 01:56:03;;;;;;;3.70;3.23;;;15.70;41.20;;;;;;10446763;28;20247;-74
2021/10/08 02:01:06;;;;;;;3.40;3.10;;;15.70;41.20;;;;;;10448075;28;20225;-74
2021/10/08 02:06:10;;;;;;;2.97;2.73;;;15.70;41.20;;;;;;10446090;28;20740;-74
2021/10/08 02:11:14;;;;;;;4.27;3.20;;;15.70;41.30;;;;;;10449073;28;20229;-74
2021/10/08 02:16:19;;;;;;;5.40;3.60;;;15.70;42.00;;;;;;10452553;28;20744;-74
2021/10/08 02:21:25;;;;;;;3.73;3.27;;;15.70;41.40;;;;;;10449238;28;20348;-74
2021/10/08 02:26:28;;;;;;;3.43;3.13;;;15.70;41.50;;;;;;10448845;28;20246;-74
2021/10/08 02:31:31;;;;;;;4.53;3.40;;;15.70;41.40;;;;;;10445010;28;20224;-74
2021/10/08 02:36:36;;;;;;;3.70;3.40;;;15.70;41.30;;;;;;10451170;28;20225;-74
2021/10/08 02:41:39;;;;;;;3.23;2.93;;;15.70;41.30;;;;;;10440338;28;20224;-74
2021/10/08 02:46:42;;;;;;;3.67;3.37;;;15.70;41.30;;;;;;10453219;28;20224;-74
2021/10/08 02:51:47;;;;;;;3.97;3.57;;;15.60;41.20;;;;;;10448888;28;20901;-74
2021/10/08 02:56:50;;;;;;;3.50;3.20;;;15.60;41.40;;;;;;10445998;28;20221;-74
2021/10/08 03:01:53;;;;;;;4.17;3.77;;;15.60;41.40;;;;;;10445511;28;20232;-74
2021/10/08 03:06:58;;;;;;;3.87;3.47;;;15.60;41.50;;;;;;10441959;28;20273;-74
2021/10/08 03:12:01;;;;;;;3.87;3.30;;;15.60;41.60;;;;;;10446790;28;20308;-74
2021/10/08 03:17:05;;;;;;;3.53;3.20;;;15.60;41.40;;;;;;10449748;28;20311;-74
2021/10/08 03:22:10;;;;;;;3.53;3.23;;;15.60;41.50;;;;;;10449619;28;20220;-74
2021/10/08 03:27:13;;;;;;;3.90;3.50;;;15.60;41.70;;;;;;10447816;28;20300;-74
2021/10/08 03:32:16;;;;;;;4.27;3.57;;;15.60;41.50;;;;;;10438750;28;20713;-74
2021/10/08 03:37:25;;;;;;;3.90;3.30;;;15.60;41.60;;;;;;10449509;28;20233;-74
2021/10/08 03:42:28;;;;;;;3.40;3.20;;;15.60;41.70;;;;;;10441413;28;20221;-74
2021/10/08 03:47:41;;;;;;;3.90;3.60;;;15.60;41.50;;;;;;10438968;28;20221;-74
2021/10/08 03:52:46;;;;;;;3.60;3.30;;;15.60;41.60;;;;;;10439985;28;20226;-74
2021/10/08 03:57:49;;;;;;;4.40;3.83;;;15.60;41.70;;;;;;10441732;28;20225;-74
2021/10/08 04:02:53;;;;;;;7.57;3.67;;;15.60;41.70;;;;;;10449672;28;20236;-74
2021/10/08 04:07:57;;;;;;;4.03;3.73;;;15.60;41.70;;;;;;10448725;28;20638;-74
2021/10/08 04:13:01;;;;;;;4.13;3.67;;;15.60;42.00;;;;;;10445008;28;20300;-74
2021/10/08 04:18:06;;;;;;;3.63;3.33;;;15.60;41.80;;;;;;10458439;28;20263;-74
2021/10/08 04:23:11;;;;;;;4.93;4.07;;;15.60;41.80;;;;;;10456862;28;20235;-74
2021/10/08 04:28:14;;;;;;;4.70;4.20;;;15.60;41.90;;;;;;10446372;28;20596;-74
2021/10/08 04:33:20;;;;;;;4.17;3.77;;;15.60;41.70;;;;;;10455398;28;20242;-74
2021/10/08 04:38:24;;;;;;;4.33;4.03;;;15.60;41.80;;;;;;10450808;28;20247;-74
2021/10/08 04:43:28;;;;;;;4.87;4.27;;;15.60;41.80;;;;;;10452218;28;20233;-74
2021/10/08 04:48:31;;;;;;;4.37;3.97;;;15.60;41.70;;;;;;10449227;28;20717;-73
2021/10/08 04:53:36;;;;;;;5.30;4.80;;;15.60;41.70;;;;;;10450127;28;20229;-74
2021/10/08 04:58:39;;;;;;;5.53;5.03;;;15.60;41.90;;;;;;10447456;28;20228;-74
2021/10/08 05:03:43;;;;;;;5.30;4.80;;;15.60;41.90;;;;;;10444468;28;20235;-74
2021/10/08 05:08:47;;;;;;;4.83;4.43;;;15.60;41.90;;;;;;10446333;28;20236;-74
2021/10/08 05:13:50;;;;;;;5.80;5.27;;;15.60;42.10;;;;;;10448464;28;20224;-74
2021/10/08 05:18:54;;;;;;;5.23;4.73;;;15.50;41.90;;;;;;10452689;28;20303;-75
2021/10/08 05:23:58;;;;;;;4.60;4.30;;;15.60;42.00;;;;;;10450795;28;20227;-75
2021/10/08 05:29:01;;;;;;;5.27;4.70;;;15.60;42.00;;;;;;10449406;28;20220;-75
2021/10/08 05:34:04;;;;;;;4.77;4.37;;;15.60;41.90;;;;;;10441791;28;20341;-75
2021/10/08 05:39:09;;;;;;;5.47;4.93;;;15.60;42.10;;;;;;10445109;28;20351;-75
2021/10/08 05:44:12;;;;;;;4.30;4.00;;;15.70;42.20;;;;;;10444413;28;20229;-75
2021/10/08 05:49:16;;;;;;;4.80;4.40;;;15.70;42.00;;;;;;10445073;28;20228;-75
2021/10/08 05:54:20;;;;;;;4.90;4.53;;;15.70;42.20;;;;;;10445132;28;20259;-75
2021/10/08 05:59:23;;;;;;;4.77;4.37;;;15.70;42.30;;;;;;10442822;28;20229;-75
2021/10/08 06:04:26;;;;;;;5.50;5.00;;;15.80;42.20;;;;;;10443043;28;20228;-75
2021/10/08 06:09:31;;;;;;;5.47;4.80;;;15.80;42.10;;;;;;10440670;28;20583;-75
2021/10/08 06:14:35;;;;;;;5.30;4.90;;;15.80;42.20;;;;;;10445995;28;20709;-74
2021/10/08 06:19:40;;;;;;;5.43;4.93;;;15.90;42.10;;;;;;10446522;28;20704;-75
2021/10/08 06:24:45;;;;;;;5.43;4.93;;;15.90;42.00;;;;;;10455856;28;20243;-75
2021/10/08 06:29:48;;;;;;;5.77;5.20;;;15.90;42.10;;;;;;10445789;28;20220;-73
2021/10/08 06:34:51;;;;;;;5.73;5.23;;;15.90;42.00;;;;;;10436940;28;20220;-74
2021/10/08 06:39:56;;;;;;;6.40;5.90;;;15.90;42.10;;;;;;10439759;28;20221;-75
2021/10/08 06:44:59;;;;;;;6.67;6.03;;;15.80;42.00;;;;;;10443851;28;20231;-76
2021/10/08 06:50:03;;;;;;;6.93;5.90;;;15.80;42.00;;;;;;10443083;28;20232;-76
2021/10/08 06:55:08;;;;;;;6.57;5.97;;;15.80;42.10;;;;;;10439892;28;20237;-75
2021/10/08 07:00:13;;;;;;;6.67;6.07;;;15.80;42.30;;;;;;10442730;28;20235;-75
2021/10/08 07:05:17;;;;;;;6.53;5.93;;;15.80;42.20;;;;;;10435860;28;20239;-76
2021/10/08 07:10:22;;;;;;;7.20;6.50;;;15.80;42.20;;;;;;10444768;28;20340;-75
2021/10/08 07:15:25;;;;;;;6.93;6.23;;;15.80;42.50;;;;;;10456730;28;20709;-75
2021/10/08 07:20:29;;;;;;;7.60;6.80;;;15.80;42.20;;;;;;10443227;28;20225;-75
2021/10/08 07:25:34;;;;;;;7.20;6.50;;;15.80;42.40;;;;;;10442795;28;20231;-75
2021/10/08 07:30:37;;;;;;;7.37;6.77;;;15.80;42.50;;;;;;10449076;28;20228;-74
2021/10/08 07:35:40;;;;;;;7.00;6.40;;;15.90;42.50;;;;;;10424544;28;20228;-74
2021/10/08 07:40:49;;;;;;;7.47;6.77;;;15.90;42.50;;;;;;10451348;28;20225;-75
2021/10/08 07:45:59;;;;;;;7.77;7.07;;;15.90;42.70;;;;;;10449511;28;20837;-74
2021/10/08 07:51:02;;;;;;;7.03;6.17;;;16.00;42.70;;;;;;10451136;28;20607;-74
2021/10/08 07:56:07;;;;;;;8.23;7.50;;;16.00;42.70;;;;;;10450547;28;20445;-75
2021/10/08 08:01:10;;;;;;;7.80;7.00;;;16.00;42.70;;;;;;10434830;28;20743;-74
2021/10/08 08:06:13;;;;;;;7.77;7.07;;;16.00;42.60;;;;;;10446930;28;20237;-75
2021/10/08 08:11:18;;;;;;;7.90;7.20;;;16.00;42.50;;;;;;10446264;28;20241;-78
2021/10/08 08:16:22;;;;;;;9.93;7.07;;;16.00;42.50;;;;;;10453425;28;20232;-78
2021/10/08 08:21:25;;;;;;;8.63;7.13;;;16.10;42.60;;;;;;10463461;28;20255;-77
2021/10/08 08:26:30;;;;;;;7.67;6.97;;;16.10;42.60;;;;;;10454857;28;20241;-77
2021/10/08 08:31:34;;;;;;;7.10;6.50;;;16.10;42.80;;;;;;10454037;28;20707;-75
2021/10/08 08:36:37;;;;;;;7.67;6.83;;;16.10;42.70;;;;;;10447415;28;20221;-75
2021/10/08 08:41:41;;;;;;;7.40;6.53;;;16.10;42.70;;;;;;10446460;28;20251;-75
2021/10/08 08:46:45;;;;;;;8.30;7.57;;;16.10;42.80;;;;;;10448147;28;20233;-75
2021/10/08 08:51:48;;;;;;;8.60;7.80;;;16.20;42.80;;;;;;10448760;28;20221;-74
2021/10/08 08:56:53;;;;;;;8.70;7.80;;;16.20;42.80;;;;;;10443664;28;20224;-76
2021/10/08 09:02:01;;;;;;;8.47;7.70;;;16.20;43.00;;;;;;10448284;28;20717;-74
2021/10/08 09:07:14;;;;;;;9.20;8.03;;;16.30;43.30;;;;;;10444604;28;20225;-76
2021/10/08 09:12:19;;;;;;;8.53;7.67;;;16.30;43.10;;;;;;10450987;28;20235;-76
2021/10/08 09:17:22;;;;;;;8.93;8.03;;;16.40;43.00;;;;;;10444028;28;20243;-76
2021/10/08 09:22:28;;;;;;;9.17;8.27;;;16.40;42.90;;;;;;10441998;28;20575;-75
2021/10/08 09:27:38;;;;;;;8.27;7.47;;;16.50;43.20;;;;;;10449549;28;20278;-75
2021/10/08 09:32:44;;;;;;;9.33;8.30;;;16.60;43.20;;;;;;10450189;28;20220;-75
2021/10/08 09:37:56;;;;;;;9.00;8.10;;;16.70;43.20;;;;;;10444512;28;20221;-74
2021/10/08 09:43:03;;;;;;;8.50;7.70;;;16.90;43.40;;;;;;10446131;28;20230;-75
2021/10/08 09:48:08;;;;;;;8.40;7.70;;;16.90;43.00;;;;;;10437945;28;20232;-75
2021/10/08 09:53:14;;;;;;;9.03;8.17;;;17.10;43.10;;;;;;10444802;28;20303;-76
2021/10/08 09:58:18;;;;;;;8.77;7.87;;;17.20;43.80;;;;;;10455019;28;20237;-76
2021/10/08 10:03:22;;;;;;;9.03;8.13;;;17.30;42.90;;;;;;10448795;28;20246;-77
2021/10/08 10:08:25;;;;;;;9.23;8.33;;;17.50;43.00;;;;;;10446041;28;20224;-77
2021/10/08 10:13:32;;;;;;;8.23;7.50;;;17.60;43.00;;;;;;10451935;28;20229;-77
2021/10/08 10:18:36;;;;;;;8.57;7.87;;;17.80;42.90;;;;;;10457234;28;21033;-78
2021/10/08 10:23:41;;;;;;;8.80;8.00;;;18.00;42.70;;;;;;10459738;28;20240;-77
2021/10/08 10:28:45;;;;;;;8.00;7.20;;;18.10;42.30;;;;;;10446169;28;20228;-77
2021/10/08 10:33:50;;;;;;;8.07;7.37;;;18.20;42.20;;;;;;10443910;28;20319;-76
2021/10/08 10:39:13;;;;;;;8.47;7.60;;;18.30;42.30;;;;;;10437424;28;20231;-76
2021/10/08 10:44:23;;;;;;;9.13;8.23;;;18.40;42.00;;;;;;10438438;28;20251;-76
2021/10/08 10:55:03;;;;;;;8.60;7.80;;;18.50;41.30;;;;;;10440807;28;20712;-74
2021/10/08 11:00:27;;;;;;;8.30;7.50;;;18.50;41.00;;;;;;10442900;28;20230;-74
2021/10/08 11:05:31;;;;;;;8.87;8.07;;;18.60;40.80;;;;;;10438189;28;20248;-75
2021/10/08 11:10:35;;;;;;;8.70;7.90;;;18.60;41.10;;;;;;10447839;28;20239;-74
2021/10/08 11:15:40;;;;;;;9.07;8.17;;;18.60;40.70;;;;;;10450092;28;20220;-74
2021/10/08 11:20:47;;;;;;;8.67;7.87;;;18.70;40.50;;;;;;10440003;28;20709;-74
2021/10/08 11:25:52;;;;;;;8.80;8.00;;;18.80;40.70;;;;;;10437497;28;20235;-74
2021/10/08 11:30:58;;;;;;;9.30;8.27;;;18.80;40.40;;;;;;10443566;28;20256;-74
2021/10/08 11:36:16;;;;;;;8.97;8.07;;;18.90;40.00;;;;;;10442111;28;20251;-74
2021/10/08 11:41:23;;;;;;;9.27;8.40;;;18.90;39.50;;;;;;10438022;28;20224;-75
2021/10/08 11:46:37;;;;;;;9.10;8.07;;;19.00;40.00;;;;;;10438355;28;20229;-74
2021/10/08 11:51:40;;;;;;;8.93;8.03;;;19.10;39.80;;;;;;10433644;28;20250;-73
2021/10/08 11:56:57;;;;;;;8.53;7.77;;;19.20;40.00;;;;;;10439451;28;20225;-74
2021/10/08 12:02:13;;;;;;;8.20;7.50;;;19.20;39.60;;;;;;10438625;28;20231;-73
2021/10/08 12:07:17;;;;;;;9.43;8.53;;;19.20;38.40;;;;;;10439771;28;20216;-74
2021/10/08 12:12:20;;;;;;;8.70;7.60;;;19.20;39.20;;;;;;10439782;28;20229;-74
2021/10/08 12:17:24;;;;;;;8.87;8.07;;;19.20;38.90;;;;;;10442544;28;20231;-74
2021/10/08 12:22:28;;;;;;;8.50;7.70;;;19.20;38.30;;;;;;10443733;28;20240;-74
2021/10/08 12:27:31;;;;;;;8.43;7.63;;;19.20;38.40;;;;;;10436821;28;20224;-74
2021/10/08 12:32:36;;;;;;;9.03;8.23;;;19.20;38.50;;;;;;10444187;28;20243;-74
2021/10/08 12:37:40;;;;;;;7.83;7.23;;;19.20;38.00;;;;;;10445606;28;20224;-73
2021/10/08 12:42:50;;;;;;;8.70;7.97;;;19.20;38.60;;;;;;10448163;28;20224;-73
2021/10/08 12:47:55;;;;;;;8.80;8.00;;;19.20;38.40;;;;;;10449907;28;20225;-73
2021/10/08 12:52:58;;;;;;;7.77;7.10;;;19.20;37.60;;;;;;10444775;28;20685;-74
2021/10/08 12:58:05;;;;;;;7.90;7.20;;;19.30;38.10;;;;;;10453874;28;20224;-75
2021/10/08 13:03:27;;;;;;;8.30;7.50;;;19.40;36.30;;;;;;10439974;28;20232;-74
2021/10/08 13:08:32;;;;;;;7.60;7.00;;;19.50;36.10;;;;;;10445309;28;20233;-74
2021/10/08 13:13:37;;;;;;;8.10;7.40;;;19.50;36.80;;;;;;10449633;28;20243;-75
2021/10/08 13:18:43;;;;;;;7.43;6.80;;;19.50;36.10;;;;;;10441338;28;20239;-73
2021/10/08 13:23:47;;;;;;;7.03;6.43;;;19.50;36.10;;;;;;10447809;28;20228;-74
2021/10/08 13:28:51;;;;;;;7.20;6.60;;;19.50;36.80;;;;;;10446704;28;20706;-75
2021/10/08 13:33:55;;;;;;;7.00;6.40;;;19.40;36.00;;;;;;10443734;28;20255;-74
2021/10/08 13:38:58;;;;;;;7.57;6.97;;;19.40;36.00;;;;;;10436428;28;20213;-75
2021/10/08 13:44:02;;;;;;;7.53;6.80;;;19.50;36.10;;;;;;10440105;28;20263;-76
2021/10/08 13:49:06;;;;;;;7.63;6.93;;;19.40;36.90;;;;;;10439649;28;20582;-75
2021/10/08 13:54:10;;;;;;;7.83;7.13;;;19.50;36.10;;;;;;10442968;28;20709;-73
2021/10/08 13:59:14;;;;;;;7.40;6.70;;;19.60;36.20;;;;;;10446245;28;20311;-76
2021/10/08 14:04:22;;;;;;;7.00;6.27;;;19.70;36.20;;;;;;10437051;28;20886;-76
2021/10/08 14:14:46;;;;;;;7.47;6.87;;;19.90;35.60;;;;;;10445375;28;20227;-74
2021/10/08 14:19:51;;;;;;;7.77;7.07;;;19.90;35.20;;;;;;10444792;28;20221;-74
2021/10/08 14:24:54;;;;;;;8.53;7.70;;;19.80;34.40;;;;;;10445582;28;20231;-74
2021/10/08 14:29:57;;;;;;;7.43;6.83;;;19.80;35.10;;;;;;10444705;28;20255;-74
2021/10/08 14:35:05;;;;;;;7.90;7.20;;;19.70;35.40;;;;;;10439362;28;20240;-75
2021/10/08 14:40:10;;;;;;;7.83;7.03;;;19.70;34.50;;;;;;10443565;28;20333;-75
2021/10/08 14:45:14;;;;;;;8.00;7.20;;;19.70;35.00;;;;;;10446228;28;20229;-75
2021/10/08 14:50:19;;;;;;;8.10;7.40;;;19.70;35.50;;;;;;10447279;28;20224;-75
2021/10/08 14:55:41;;;;;;;7.73;6.93;;;19.70;34.70;;;;;;10448896;28;20255;-75
2021/10/08 15:00:45;;;;;;;7.93;7.23;;;19.60;34.90;;;;;;10441143;28;20319;-76
2021/10/08 15:05:56;;;;;;;7.33;6.63;;;19.60;34.80;;;;;;10438726;28;20226;-76
2021/10/08 15:10:59;;;;;;;7.67;6.97;;;19.60;34.20;;;;;;10444484;28;20225;-77
2021/10/08 15:16:02;;;;;;;7.70;6.83;;;19.60;34.80;;;;;;10442514;28;20323;-75
2021/10/08 15:21:07;;;;;;;7.87;7.07;;;19.60;34.70;;;;;;10443616;28;20590;-75
2021/10/08 15:26:10;;;;;;;7.10;6.53;;;19.50;34.20;;;;;;10445195;28;20662;-74
2021/10/08 15:31:14;;;;;;;7.73;7.03;;;19.50;34.90;;;;;;10442473;28;20236;-74
2021/10/08 15:36:18;;;;;;;7.50;6.60;;;19.60;34.90;;;;;;10433043;28;20233;-73
2021/10/08 15:41:22;;;;;;;6.57;5.97;;;19.60;34.40;;;;;;10435133;28;20907;-77
2021/10/08 15:46:25;;;;;;;6.47;5.87;;;19.60;34.30;;;;;;10439515;28;20221;-77
2021/10/08 15:51:30;;;;;;;6.50;5.90;;;19.50;33.80;;;;;;10449569;28;20221;-78
2021/10/08 15:56:33;;;;;;;6.33;5.73;;;19.50;34.20;;;;;;10451431;28;20235;-77
2021/10/08 16:01:37;;;;;;;6.30;5.60;;;19.50;33.90;;;;;;10449955;28;20232;-77
2021/10/08 16:06:41;;;;;;;6.07;5.47;;;19.40;33.70;;;;;;10452328;28;20243;-77
2021/10/08 16:11:45;;;;;;;6.30;5.70;;;19.30;33.30;;;;;;10446946;28;20224;-77
2021/10/08 16:16:50;;;;;;;6.43;5.53;;;19.30;33.70;;;;;;10448743;28;20233;-77
2021/10/08 16:21:55;;;;;;;6.40;5.80;;;19.20;33.80;;;;;;10455496;28;20219;-77
2021/10/08 16:26:58;;;;;;;8.23;5.70;;;19.10;33.50;;;;;;10451581;28;20228;-76
2021/10/08 16:32:02;;;;;;;6.07;5.47;;;19.00;33.90;;;;;;10444787;28;20231;-77
2021/10/08 16:37:09;;;;;;;7.43;6.80;;;19.00;33.90;;;;;;10443808;28;20217;-76
2021/10/08 16:42:12;;;;;;;6.80;6.20;;;18.90;33.70;;;;;;10450324;28;20240;-75
2021/10/08 16:47:21;;;;;;;7.40;5.70;;;18.90;34.30;;;;;;10453896;28;20229;-76
2021/10/08 16:52:26;;;;;;;8.13;7.33;;;18.80;34.40;;;;;;10456313;28;20228;-76
2021/10/08 16:57:30;;;;;;;8.77;8.00;;;18.80;34.30;;;;;;10447087;28;20232;-76
2021/10/08 17:02:33;;;;;;;9.13;8.37;;;18.70;34.60;;;;;;10443318;28;20233;-76
2021/10/08 17:07:37;;;;;;;10.20;9.20;;;18.60;34.70;;;;;;10443630;28;20227;-75
2021/10/08 17:12:41;;;;;;;11.30;10.03;;;18.50;34.40;;;;;;10447986;28;20704;-75
2021/10/08 17:17:44;;;;;;;10.60;9.53;;;18.50;34.90;;;;;;10450907;28;20233;-76
2021/10/08 17:22:48;;;;;;;14.33;12.93;;;18.40;35.10;;;;;;10446746;28;20224;-75
2021/10/08 17:27:56;;;;;;;12.80;11.60;;;18.40;34.80;;;;;;10441235;28;20319;-76
2021/10/08 17:38:23;;;;;;;10.83;9.80;;;18.20;34.90;;;;;;10439337;28;20235;-75
2021/10/08 17:43:26;;;;;;;9.47;8.47;;;18.20;35.00;;;;;;10441589;28;20935;-75
2021/10/08 17:48:31;;;;;;;9.13;8.33;;;18.10;34.80;;;;;;10442473;28;20260;-76
2021/10/08 17:53:36;;;;;;;10.80;9.77;;;18.00;34.70;;;;;;10449453;28;20221;-76
2021/10/08 17:58:40;;;;;;;10.50;9.60;;;17.90;34.70;;;;;;10449052;28;20699;-75
2021/10/08 18:03:45;;;;;;;10.17;9.27;;;17.90;34.70;;;;;;10445819;28;20798;-75
2021/10/08 18:08:49;;;;;;;10.27;9.37;;;17.80;34.60;;;;;;10439129;28;20223;-76
2021/10/08 18:13:53;;;;;;;10.60;9.40;;;17.60;34.40;;;;;;10441742;28;20220;-76
2021/10/08 18:18:56;;;;;;;10.43;9.33;;;17.50;34.70;;;;;;10448888;28;20220;-76
2021/10/08 18:24:02;;;;;;;10.17;9.37;;;17.40;34.80;;;;;;10436087;28;20784;-76
2021/10/08 18:29:10;;;;;;;11.03;9.93;;;17.30;34.90;;;;;;10447721;28;20299;-76
2021/10/08 18:34:13;;;;;;;10.97;9.97;;;17.20;35.00;;;;;;10442072;28;20232;-75
2021/10/08 18:39:19;;;;;;;10.87;9.77;;;17.10;35.20;;;;;;10435751;28;20731;-77
2021/10/08 18:44:22;;;;;;;10.60;9.60;;;16.90;35.20;;;;;;10435037;28;20244;-73
2021/10/08 18:49:25;;;;;;;11.00;10.00;;;16.80;35.20;;;;;;10438715;28;20221;-74
2021/10/08 18:54:30;;;;;;;10.20;9.20;;;16.70;35.30;;;;;;10440970;28;20232;-74
2021/10/08 18:59:33;;;;;;;11.23;10.20;;;16.70;35.50;;;;;;10442635;28;20228;-76
2021/10/08 19:04:36;;;;;;;10.10;9.20;;;16.60;35.40;;;;;;10437036;28;20228;-74
2021/10/08 19:09:43;;;;;;;9.60;8.70;;;16.50;35.30;;;;;;10419836;28;21233;-74
2021/10/08 19:14:51;;;;;;;10.63;9.63;;;16.40;35.60;;;;;;10435035;28;20228;-75
2021/10/08 19:20:07;;;;;;;9.07;8.27;;;16.30;35.50;;;;;;10429742;28;20213;-75
2021/10/08 19:25:32;;;;;;;10.83;9.80;;;16.20;35.50;;;;;;10427655;28;20229;-74
2021/10/08 19:30:36;;;;;;;11.07;10.07;;;16.10;35.70;;;;;;10433896;28;20212;-75
2021/10/08 19:35:40;;;;;;;10.93;10.03;;;16.00;35.60;;;;;;10430308;28;20738;-74
2021/10/08 19:40:45;;;;;;;10.50;9.40;;;15.90;35.60;;;;;;10440324;28;20217;-75
2021/10/08 19:45:54;;;;;;;12.20;11.07;;;15.90;35.80;;;;;;10445873;28;20229;-75
2021/10/08 19:50:58;;;;;;;11.17;10.17;;;15.80;35.70;;;;;;10453112;28;20247;-74
2021/10/08 19:56:02;;;;;;;13.07;11.77;;;15.70;35.60;;;;;;10444735;28;20736;-75
2021/10/08 20:01:06;;;;;;;11.60;10.53;;;15.60;35.60;;;;;;10443714;28;20324;-74
2021/10/08 20:06:18;;;;;;;12.60;11.40;;;15.50;35.60;;;;;;10441879;28;20256;-74
2021/10/08 20:16:43;;;;;;;12.03;10.93;;;15.30;36.00;;;;;;10436174;28;20224;-74
2021/10/08 20:21:46;;;;;;;11.97;10.87;;;15.30;36.00;;;;;;10433407;28;20308;-75
2021/10/08 20:26:51;;;;;;;12.33;11.13;;;15.20;36.10;;;;;;10431840;28;20313;-75
2021/10/08 20:31:55;;;;;;;15.53;12.77;;;15.10;36.10;;;;;;10440449;28;20217;-75
2021/10/08 20:36:58;;;;;;;12.00;10.80;;;15.10;36.20;;;;;;10439055;28;20228;-75
2021/10/08 20:42:03;;;;;;;12.00;10.90;;;15.10;36.20;;;;;;10438506;28;20768;-75
2021/10/08 20:47:07;;;;;;;11.43;10.33;;;15.00;36.10;;;;;;10440410;28;20221;-75
2021/10/08 20:52:11;;;;;;;11.70;10.53;;;14.90;35.90;;;;;;10444636;28;20232;-75
2021/10/08 20:57:15;;;;;;;11.83;10.73;;;14.90;36.10;;;;;;10442833;28;20735;-76
2021/10/08 21:02:18;;;;;;;11.93;10.83;;;14.80;36.20;;;;;;10439396;28;20237;-76
2021/10/08 21:07:22;;;;;;;11.60;10.50;;;14.80;36.20;;;;;;10442489;28;20263;-76
2021/10/08 21:12:28;;;;;;;13.37;12.07;;;14.70;36.00;;;;;;10446372;28;20225;-75
2021/10/08 21:17:31;;;;;;;11.60;10.60;;;14.60;35.80;;;;;;10434424;28;20221;-75
2021/10/08 21:22:35;;;;;;;12.87;11.57;;;14.50;35.90;;;;;;10449885;28;20233;-76
2021/10/08 21:27:39;;;;;;;9.77;8.87;;;14.50;36.90;;;;;;10442498;28;20320;-76
2021/10/08 21:32:43;;;;;;;12.87;11.67;;;14.40;36.10;;;;;;10451471;28;20227;-76
2021/10/08 21:37:50;;;;;;;13.43;12.03;;;14.40;36.20;;;;;;10437019;28;20298;-75
2021/10/08 21:48:15;;;;;;;13.63;12.30;;;14.20;36.10;;;;;;10444461;28;20240;-75
2021/10/08 21:53:19;;;;;;;13.27;12.07;;;14.20;36.10;;;;;;10443125;28;20243;-76
2021/10/08 21:58:23;;;;;;;12.93;11.70;;;14.10;36.10;;;;;;10445761;28;20237;-76
2021/10/08 22:03:26;;;;;;;13.70;12.40;;;14.00;36.00;;;;;;10450858;28;21407;-75
2021/10/08 22:08:29;;;;;;;12.23;11.03;;;14.00;36.10;;;;;;10445984;28;21326;-76
2021/10/08 22:13:34;;;;;;;11.13;10.03;;;13.90;36.10;;;;;;10443913;28;20903;-76
2021/10/08 22:18:41;;;;;;;13.33;12.10;;;13.80;36.20;;;;;;10445881;28;20244;-76
2021/10/08 22:23:50;;;;;;;11.63;10.63;;;13.70;36.10;;;;;;10439524;28;20232;-76
2021/10/08 22:33:26;;;;;;;13.20;12.00;;;13.70;36.30;;;;;;10451258;28;20217;-76
2021/10/08 22:34:29;;;;;;;12.53;11.27;;;13.60;36.30;;;;;;10446863;28;20229;-76
2021/10/08 22:39:33;;;;;;;13.50;12.20;;;13.60;36.40;;;;;;10441415;28;20252;-76
2021/10/08 22:44:38;;;;;;;12.20;10.97;;;13.50;36.50;;;;;;10454430;28;20233;-76
2021/10/08 22:49:41;;;;;;;12.63;11.43;;;13.50;36.60;;;;;;10445930;28;20223;-76
2021/10/08 22:54:44;;;;;;;12.33;11.17;;;13.40;36.30;;;;;;10447582;28;20236;-76
2021/10/08 22:59:49;;;;;;;12.53;11.33;;;13.30;36.40;;;;;;10450415;28;20222;-76
2021/10/08 23:04:52;;;;;;;11.97;10.87;;;13.20;36.50;;;;;;10444509;28;20224;-76
2021/10/08 23:10:06;;;;;;;12.80;11.50;;;13.10;36.40;;;;;;10457865;28;20312;-75
2021/10/08 23:15:24;;;;;;;11.53;10.50;;;13.10;36.60;;;;;;10457877;28;20309;-76
2021/10/08 23:20:27;;;;;;;12.40;11.10;;;13.00;36.70;;;;;;10462731;28;20689;-75
2021/10/08 23:25:31;;;;;;;12.10;11.00;;;13.00;36.70;;;;;;10458126;28;20238;-76
2021/10/08 23:30:35;;;;;;;12.00;10.70;;;12.90;36.80;;;;;;10453142;28;20221;-76
2021/10/08 23:35:39;;;;;;;11.43;10.33;;;12.90;37.00;;;;;;10456542;28;20323;-76
2021/10/08 23:40:42;;;;;;;12.23;10.37;;;12.90;36.90;;;;;;10452870;28;20216;-75
2021/10/08 23:45:47;;;;;;;10.67;9.63;;;12.80;36.90;;;;;;10457002;28;20224;-76
2021/10/08 23:50:54;;;;;;;10.33;9.33;;;12.80;37.10;;;;;;10453129;28;20654;-75
2021/10/08 23:55:57;;;;;;;11.73;10.53;;;12.80;37.10;;;;;;10447719;28;20231;-76
